Time;durP1;ratioP1;P1;durP2;ratioP2;P2;SDS_P1;SDS_P2;PMS_P1;PMS_P2;Temp;Humidity;BMP_temperature;BMP_pressure;BME280_temperature;BME280_humidity;BME280_pressure;Samples;Min_cycle;Max_cycle;Signal;HPM_P1;HPM_P2
2023/07/10 00:00:01;;;;;;;;;;;;;;;;;;4958036;28;19969;-89
2023/07/10 00:02:27;;;;;;;;;;;;;;;;;;4959122;28;19922;-91
2023/07/10 00:04:53;;;;;;;;;;;;;;;;;;4959582;28;20463;-89
2023/07/10 00:07:19;;;;;;;;;;;;;;;;;;4957594;28;20381;-90
2023/07/10 00:09:45;;;;;;;;;;;;;;;;;;4956311;28;19932;-89
2023/07/10 00:12:11;;;;;;;;;;;;;;;;;;4958140;28;19926;-90
2023/07/10 00:14:37;;;;;;;;;;;;;;;;;;4957701;28;19929;-90
2023/07/10 00:17:03;;;;;;;;;;;;;;;;;;4974582;28;20012;-91
2023/07/10 00:19:29;;;;;;;;;;;;;;;;;;4957912;28;19930;-89
2023/07/10 00:21:56;;;;;;;;;;;;;;;;;;4973178;28;19977;-90
2023/07/10 00:24:22;;;;;;;;;;;;;;;;;;4957810;28;19928;-90
2023/07/10 00:26:48;;;;;;;;;;;;;;;;;;4957742;28;19958;-87
2023/07/10 00:29:14;;;;;;;;;;;;;;;;;;4956697;28;19976;-90
2023/07/10 00:31:40;;;;;;;;;;;;;;;;;;4956583;28;19981;-89
2023/07/10 00:34:06;;;;;;;;;;;;;;;;;;4957846;28;19922;-92
2023/07/10 00:36:38;;;;;;;;;;;;;;;;;;4974627;28;20384;-88
2023/07/10 00:39:04;;;;;;;;;;;;;;;;;;4958761;28;19929;-90
2023/07/10 00:41:30;;;;;;;;;;;;;;;;;;4974690;28;19922;-91
2023/07/10 00:43:56;;;;;;;;;;;;;;;;;;4958430;28;20333;-90
2023/07/10 00:46:22;;;;;;;;;;;;;;;;;;4957274;28;20443;-90
2023/07/10 00:48:48;;;;;;;;;;;;;;;;;;4957322;28;19926;-89
2023/07/10 00:51:15;;;;;;;;;;;;;;;;;;4955591;28;19922;-90
2023/07/10 00:53:41;;;;;;;;;;;;;;;;;;4958007;28;19929;-91
2023/07/10 00:56:09;;;;;;;;;;;;;;;;;;4958547;28;19922;-91
2023/07/10 00:58:37;;;;;;;;;;;;;;;;;;4957007;28;19922;-90
2023/07/10 01:01:03;;;;;;;;;;;;;;;;;;4957648;28;19989;-90
2023/07/10 01:03:29;;;;;;;;;;;;;;;;;;4957791;28;19929;-90
2023/07/10 01:05:55;;;;;;;;;;;;;;;;;;4957206;28;20012;-90
2023/07/10 01:08:23;;;;;;;;;;;;;;;;;;4955895;28;19910;-87
2023/07/10 01:10:49;;;;;;;;;;;;;;;;;;4954500;28;19906;-88
2023/07/10 01:13:15;;;;;;;;;;;;;;;;;;4954741;28;19984;-89
2023/07/10 01:15:41;;;;;;;;;;;;;;;;;;4955944;28;20312;-89
2023/07/10 01:18:10;;;;;;;;;;;;;;;;;;4955657;28;19929;-90
2023/07/10 01:20:36;;;;;;;;;;;;;;;;;;4972194;28;19922;-90
2023/07/10 01:23:01;;;;;;;;;;;;;;;;;;4955648;28;19922;-89
2023/07/10 01:25:27;;;;;;;;;;;;;;;;;;4955074;28;19929;-89
2023/07/10 01:27:53;;;;;;;;;;;;;;;;;;4955272;28;19926;-89
2023/07/10 01:30:19;;;;;;;;;;;;;;;;;;4953946;28;19922;-90
2023/07/10 01:32:45;;;;;;;;;;;;;;;;;;4954336;28;19922;-90
2023/07/10 01:35:11;;;;;;;;;;;;;;;;;;4954259;28;19928;-89
2023/07/10 01:37:37;;;;;;;;;;;;;;;;;;4955544;28;19922;-87
2023/07/10 01:40:04;;;;;;;;;;;;;;;;;;4953514;28;19922;-88
2023/07/10 01:42:29;;;;;;;;;;;;;;;;;;4952013;28;19986;-89
2023/07/10 01:44:55;;;;;;;;;;;;;;;;;;4951926;28;19922;-90
2023/07/10 01:47:21;;;;;;;;;;;;;;;;;;4951603;28;19965;-87
2023/07/10 01:49:47;;;;;;;;;;;;;;;;;;4951311;28;19925;-86
2023/07/10 01:52:13;;;;;;;;;;;;;;;;;;4951591;28;19929;-88
2023/07/10 01:54:39;;;;;;;;;;;;;;;;;;4953722;28;19922;-89
2023/07/10 01:57:05;;;;;;;;;;;;;;;;;;4954872;28;19925;-88
2023/07/10 01:59:31;;;;;;;;;;;;;;;;;;4956273;28;19910;-90
2023/07/10 02:01:57;;;;;;;;;;;;;;;;;;4955151;28;19922;-89
2023/07/10 02:04:23;;;;;;;;;;;;;;;;;;4955561;28;19926;-88
2023/07/10 02:06:49;;;;;;;;;;;;;;;;;;4957140;28;19968;-89
2023/07/10 02:09:16;;;;;;;;;;;;;;;;;;4956136;28;19951;-88
2023/07/10 02:11:42;;;;;;;;;;;;;;;;;;4954124;28;20098;-89
2023/07/10 02:14:08;;;;;;;;;;;;;;;;;;4954271;28;19922;-88
2023/07/10 02:16:34;;;;;;;;;;;;;;;;;;4954871;28;19938;-89
2023/07/10 02:19:00;;;;;;;;;;;;;;;;;;4972155;28;19957;-90
2023/07/10 02:21:26;;;;;;;;;;;;;;;;;;4955632;28;20389;-88
2023/07/10 02:23:52;;;;;;;;;;;;;;;;;;4955408;28;20393;-89
2023/07/10 02:26:18;;;;;;;;;;;;;;;;;;4954384;28;19969;-88
2023/07/10 02:28:44;;;;;;;;;;;;;;;;;;4954950;28;19917;-86
2023/07/10 02:31:10;;;;;;;;;;;;;;;;;;4954300;28;19922;-88
2023/07/10 02:33:53;;;;;;;;;;;;;;;;;;4969004;28;19922;-89
2023/07/10 02:36:19;;;;;;;;;;;;;;;;;;4954674;28;19932;-89
2023/07/10 02:38:45;;;;;;;;;;;;;;;;;;4954153;28;20009;-88
2023/07/10 02:41:11;;;;;;;;;;;;;;;;;;4967326;28;19922;-88
2023/07/10 02:43:37;;;;;;;;;;;;;;;;;;4953899;28;20305;-89
2023/07/10 02:46:03;;;;;;;;;;;;;;;;;;4969176;28;19941;-90
2023/07/10 02:48:29;;;;;;;;;;;;;;;;;;4954678;28;19917;-88
2023/07/10 02:50:55;;;;;;;;;;;;;;;;;;4954775;28;19921;-89
2023/07/10 02:53:21;;;;;;;;;;;;;;;;;;4952460;28;19926;-90
2023/07/10 02:55:47;;;;;;;;;;;;;;;;;;4949743;28;20020;-90
2023/07/10 02:58:13;;;;;;;;;;;;;;;;;;4950454;28;19929;-89
2023/07/10 03:00:42;;;;;;;;;;;;;;;;;;4968553;28;19922;-90
2023/07/10 03:03:08;;;;;;;;;;;;;;;;;;4950297;28;19989;-89
2023/07/10 03:05:34;;;;;;;;;;;;;;;;;;4950754;28;19929;-89
2023/07/10 03:08:00;;;;;;;;;;;;;;;;;;4950874;28;19926;-89
2023/07/10 03:10:25;;;;;;;;;;;;;;;;;;4965113;28;19986;-89
2023/07/10 03:12:51;;;;;;;;;;;;;;;;;;4950626;28;19922;-88
2023/07/10 03:15:17;;;;;;;;;;;;;;;;;;4949592;28;19922;-87
2023/07/10 03:17:44;;;;;;;;;;;;;;;;;;4949812;28;20021;-89
2023/07/10 03:20:10;;;;;;;;;;;;;;;;;;4966035;28;19948;-89
2023/07/10 03:22:36;;;;;;;;;;;;;;;;;;4950466;28;19977;-90
2023/07/10 03:25:02;;;;;;;;;;;;;;;;;;4950870;28;19938;-89
2023/07/10 03:27:29;;;;;;;;;;;;;;;;;;4950216;28;19922;-88
2023/07/10 03:29:55;;;;;;;;;;;;;;;;;;4965055;28;19933;-89
2023/07/10 03:32:21;;;;;;;;;;;;;;;;;;4951579;28;19922;-89
2023/07/10 03:34:47;;;;;;;;;;;;;;;;;;4951672;28;19932;-89
2023/07/10 03:37:14;;;;;;;;;;;;;;;;;;4950041;28;19926;-88
2023/07/10 03:40:00;;;;;;;;;;;;;;;;;;4950609;28;19930;-89
2023/07/10 03:42:27;;;;;;;;;;;;;;;;;;4950124;28;20365;-89
2023/07/10 03:44:53;;;;;;;;;;;;;;;;;;4949529;28;19922;-88
2023/07/10 03:47:19;;;;;;;;;;;;;;;;;;4948540;28;19923;-89
2023/07/10 03:49:45;;;;;;;;;;;;;;;;;;4950286;28;19937;-90
2023/07/10 03:52:11;;;;;;;;;;;;;;;;;;4949650;28;20012;-89
2023/07/10 03:54:37;;;;;;;;;;;;;;;;;;4949415;28;20370;-89
2023/07/10 03:57:03;;;;;;;;;;;;;;;;;;4949549;28;19957;-89
2023/07/10 03:59:29;;;;;;;;;;;;;;;;;;4953643;28;19957;-87
2023/07/10 04:01:55;;;;;;;;;;;;;;;;;;4955793;28;19980;-88
2023/07/10 04:04:21;;;;;;;;;;;;;;;;;;4970380;28;19968;-89
2023/07/10 04:06:48;;;;;;;;;;;;;;;;;;4953782;28;19926;-89
2023/07/10 04:09:14;;;;;;;;;;;;;;;;;;4956094;28;19933;-89
2023/07/10 04:11:42;;;;;;;;;;;;;;;;;;4954736;28;19922;-87
2023/07/10 04:14:08;;;;;;;;;;;;;;;;;;4955357;28;19922;-88
2023/07/10 04:16:34;;;;;;;;;;;;;;;;;;4955389;28;20538;-90
2023/07/10 04:18:59;;;;;;;;;;;;;;;;;;4955019;28;19922;-90
2023/07/10 04:21:25;;;;;;;;;;;;;;;;;;4954799;28;19962;-89
2023/07/10 04:23:51;;;;;;;;;;;;;;;;;;4954211;28;20270;-89
2023/07/10 04:26:17;;;;;;;;;;;;;;;;;;4971999;28;19929;-90
2023/07/10 04:28:43;;;;;;;;;;;;;;;;;;4954811;28;19930;-89
2023/07/10 04:31:09;;;;;;;;;;;;;;;;;;4953881;28;19910;-89
2023/07/10 04:33:36;;;;;;;;;;;;;;;;;;4953844;28;19977;-88
2023/07/10 04:36:02;;;;;;;;;;;;;;;;;;4954474;28;19985;-89
2023/07/10 04:38:28;;;;;;;;;;;;;;;;;;4957567;28;20455;-85
2023/07/10 04:40:54;;;;;;;;;;;;;;;;;;4951722;28;19922;-88
2023/07/10 04:43:20;;;;;;;;;;;;;;;;;;4953456;28;19929;-86
2023/07/10 04:45:46;;;;;;;;;;;;;;;;;;4953361;28;19989;-88
2023/07/10 04:48:12;;;;;;;;;;;;;;;;;;4968487;28;19970;-88
2023/07/10 04:50:38;;;;;;;;;;;;;;;;;;4950262;28;20383;-88
2023/07/10 04:53:04;;;;;;;;;;;;;;;;;;4954539;28;19929;-90
2023/07/10 04:55:30;;;;;;;;;;;;;;;;;;4953516;28;20006;-88
2023/07/10 04:57:57;;;;;;;;;;;;;;;;;;4951913;28;19929;-88
2023/07/10 05:00:23;;;;;;;;;;;;;;;;;;4952534;28;19925;-88
2023/07/10 05:02:49;;;;;;;;;;;;;;;;;;4951425;28;19976;-88
2023/07/10 05:05:15;;;;;;;;;;;;;;;;;;4949820;28;19922;-87
2023/07/10 05:07:42;;;;;;;;;;;;;;;;;;4949925;28;19924;-89
2023/07/10 05:10:08;;;;;;;;;;;;;;;;;;4949031;28;19929;-88
2023/07/10 05:12:34;;;;;;;;;;;;;;;;;;4950063;28;19922;-87
2023/07/10 05:15:00;;;;;;;;;;;;;;;;;;4950496;28;19922;-88
2023/07/10 05:17:26;;;;;;;;;;;;;;;;;;4950518;28;19922;-88
2023/07/10 05:19:52;;;;;;;;;;;;;;;;;;4948841;28;19910;-87
2023/07/10 05:22:18;;;;;;;;;;;;;;;;;;4966260;28;19922;-87
2023/07/10 05:24:44;;;;;;;;;;;;;;;;;;4951409;28;19976;-88
2023/07/10 05:27:10;;;;;;;;;;;;;;;;;;4951296;28;19945;-88
2023/07/10 05:29:36;;;;;;;;;;;;;;;;;;4952888;28;19926;-90
2023/07/10 05:32:02;;;;;;;;;;;;;;;;;;4952277;28;19941;-88
2023/07/10 05:34:28;;;;;;;;;;;;;;;;;;4951854;28;20443;-87
2023/07/10 05:36:54;;;;;;;;;;;;;;;;;;4954678;28;19922;-88
2023/07/10 05:39:20;;;;;;;;;;;;;;;;;;4951639;28;19922;-88
2023/07/10 05:41:46;;;;;;;;;;;;;;;;;;4953874;28;19985;-88
2023/07/10 05:44:12;;;;;;;;;;;;;;;;;;4950785;28;19922;-87
2023/07/10 05:46:37;;;;;;;;;;;;;;;;;;4949834;28;19922;-88
2023/07/10 05:49:03;;;;;;;;;;;;;;;;;;4949022;28;19933;-87
2023/07/10 05:51:29;;;;;;;;;;;;;;;;;;4948797;28;19922;-87
2023/07/10 05:53:56;;;;;;;;;;;;;;;;;;4948873;28;20286;-89
2023/07/10 05:56:23;;;;;;;;;;;;;;;;;;4947882;28;20414;-88
2023/07/10 05:58:50;;;;;;;;;;;;;;;;;;4964685;28;19945;-87
2023/07/10 06:01:16;;;;;;;;;;;;;;;;;;4947323;28;19968;-86
2023/07/10 06:03:42;;;;;;;;;;;;;;;;;;4948448;28;19977;-87
2023/07/10 06:06:08;;;;;;;;;;;;;;;;;;4947972;28;19922;-88
2023/07/10 06:08:33;;;;;;;;;;;;;;;;;;4948919;28;19930;-88
2023/07/10 06:10:59;;;;;;;;;;;;;;;;;;4963927;28;19926;-87
2023/07/10 06:13:25;;;;;;;;;;;;;;;;;;4947602;28;19950;-88
2023/07/10 06:15:51;;;;;;;;;;;;;;;;;;4947147;28;19972;-89
2023/07/10 06:18:17;;;;;;;;;;;;;;;;;;4948736;28;19928;-88
2023/07/10 06:20:43;;;;;;;;;;;;;;;;;;4946531;28;19926;-88
2023/07/10 06:23:25;;;;;;;;;;;;;;;;;;4964394;28;19921;-88
2023/07/10 06:25:51;;;;;;;;;;;;;;;;;;4964621;28;19922;-87
2023/07/10 06:28:16;;;;;;;;;;;;;;;;;;4948662;28;19933;-89
2023/07/10 06:30:42;;;;;;;;;;;;;;;;;;4948844;28;19926;-87
2023/07/10 06:33:08;;;;;;;;;;;;;;;;;;4967522;28;19922;-87
2023/07/10 06:35:34;;;;;;;;;;;;;;;;;;4950703;28;19942;-87
2023/07/10 06:38:03;;;;;;;;;;;;;;;;;;4950905;28;20065;-88
2023/07/10 06:40:29;;;;;;;;;;;;;;;;;;4965358;28;19923;-88
2023/07/10 06:42:55;;;;;;;;;;;;;;;;;;4949106;28;19929;-86
2023/07/10 06:45:21;;;;;;;;;;;;;;;;;;4948239;28;19972;-87
2023/07/10 06:47:47;;;;;;;;;;;;;;;;;;4947562;28;19910;-87
2023/07/10 06:50:13;;;;;;;;;;;;;;;;;;4947297;28;19950;-89
2023/07/10 06:52:42;;;;;;;;;;;;;;;;;;4965207;28;19973;-88
2023/07/10 06:55:08;;;;;;;;;;;;;;;;;;4947526;28;19926;-89
2023/07/10 06:57:34;;;;;;;;;;;;;;;;;;4946070;28;19922;-89
2023/07/10 07:00:00;;;;;;;;;;;;;;;;;;4946075;28;19934;-88
2023/07/10 07:05:07;;;;;;;;;;;;;;;;;;4963761;28;19976;-89
2023/07/10 07:07:33;;;;;;;;;;;;;;;;;;4948389;28;19926;-89
2023/07/10 07:09:59;;;;;;;;;;;;;;;;;;4947032;28;19993;-88
2023/07/10 07:12:25;;;;;;;;;;;;;;;;;;4947818;28;20369;-87
2023/07/10 07:14:51;;;;;;;;;;;;;;;;;;4947117;28;20424;-88
2023/07/10 07:17:17;;;;;;;;;;;;;;;;;;4964459;28;19990;-88
2023/07/10 07:19:43;;;;;;;;;;;;;;;;;;4963724;28;19933;-89
2023/07/10 07:22:09;;;;;;;;;;;;;;;;;;4961460;28;20459;-88
2023/07/10 07:24:34;;;;;;;;;;;;;;;;;;4948551;28;19922;-86
2023/07/10 07:27:00;;;;;;;;;;;;;;;;;;4946491;28;19923;-88
2023/07/10 07:29:26;;;;;;;;;;;;;;;;;;4947471;28;19926;-89
2023/07/10 07:31:52;;;;;;;;;;;;;;;;;;4946517;28;19922;-88
2023/07/10 07:34:18;;;;;;;;;;;;;;;;;;4950814;28;19922;-89
2023/07/10 07:36:44;;;;;;;;;;;;;;;;;;4966711;28;19960;-88
2023/07/10 07:39:10;;;;;;;;;;;;;;;;;;4951723;28;19977;-90
2023/07/10 07:41:36;;;;;;;;;;;;;;;;;;4967693;28;19985;-88
2023/07/10 07:44:02;;;;;;;;;;;;;;;;;;4968169;28;20008;-89
2023/07/10 07:46:28;;;;;;;;;;;;;;;;;;4968380;28;19930;-88
2023/07/10 07:48:54;;;;;;;;;;;;;;;;;;4966739;28;20021;-88
2023/07/10 07:51:20;;;;;;;;;;;;;;;;;;4950122;28;20016;-90
2023/07/10 07:53:46;;;;;;;;;;;;;;;;;;4951150;28;19955;-87
2023/07/10 07:56:12;;;;;;;;;;;;;;;;;;4933778;29;19922;-90
2023/07/10 07:58:38;;;;;;;;;;;;;;;;;;4930760;29;19922;-89
2023/07/10 08:01:04;;;;;;;;;;;;;;;;;;4953348;28;19922;-90
2023/07/10 08:03:29;;;;;;;;;;;;;;;;;;4964055;28;19922;-85
2023/07/10 08:05:55;;;;;;;;;;;;;;;;;;4965628;28;20326;-87
2023/07/10 08:08:22;;;;;;;;;;;;;;;;;;4952243;28;19927;-87
2023/07/10 08:10:48;;;;;;;;;;;;;;;;;;4951162;28;19930;-88
2023/07/10 08:13:13;;;;;;;;;;;;;;;;;;4949997;28;19926;-89
2023/07/10 08:15:39;;;;;;;;;;;;;;;;;;4965434;28;19922;-88
2023/07/10 08:18:05;;;;;;;;;;;;;;;;;;4964863;28;19926;-88
2023/07/10 08:20:31;;;;;;;;;;;;;;;;;;4949005;28;20400;-89
2023/07/10 08:22:57;;;;;;;;;;;;;;;;;;4951314;28;20304;-87
2023/07/10 08:25:23;;;;;;;;;;;;;;;;;;4950555;28;19932;-89
2023/07/10 08:27:52;;;;;;;;;;;;;;;;;;4942014;28;19973;-89
2023/07/10 08:30:18;;;;;;;;;;;;;;;;;;4953233;28;19922;-88
2023/07/10 08:32:44;;;;;;;;;;;;;;;;;;4954569;28;19922;-87
2023/07/10 08:35:10;;;;;;;;;;;;;;;;;;4967250;28;19980;-88
2023/07/10 08:37:40;;;;;;;;;;;;;;;;;;4952077;28;20017;-87
2023/07/10 08:40:06;;;;;;;;;;;;;;;;;;4947664;28;19922;-87
2023/07/10 08:42:32;;;;;;;;;;;;;;;;;;4948286;28;19922;-89
2023/07/10 08:44:58;;;;;;;;;;;;;;;;;;4949934;28;19922;-88
2023/07/10 08:47:24;;;;;;;;;;;;;;;;;;4964705;28;19922;-89
2023/07/10 08:49:54;;;;;;;;;;;;;;;;;;4948875;28;19930;-89
2023/07/10 08:52:32;;;;;;;;;;;;;;;;;;4967827;28;20392;-90
2023/07/10 08:54:58;;;;;;;;;;;;;;;;;;4950518;28;19930;-88
2023/07/10 08:57:27;;;;;;;;;;;;;;;;;;4966407;28;19930;-89
2023/07/10 08:59:53;;;;;;;;;;;;;;;;;;4949900;28;19942;-90
2023/07/10 09:02:19;;;;;;;;;;;;;;;;;;4967436;28;20017;-90
2023/07/10 09:04:45;;;;;;;;;;;;;;;;;;4968029;28;19945;-89
2023/07/10 09:07:11;;;;;;;;;;;;;;;;;;4950098;28;19922;-90
2023/07/10 09:09:37;;;;;;;;;;;;;;;;;;4947907;28;19977;-90
2023/07/10 09:12:03;;;;;;;;;;;;;;;;;;4965646;28;19933;-89
2023/07/10 09:14:29;;;;;;;;;;;;;;;;;;4949654;28;19926;-91
2023/07/10 09:16:55;;;;;;;;;;;;;;;;;;4947645;28;19922;-87
2023/07/10 09:19:21;;;;;;;;;;;;;;;;;;4948756;28;19937;-89
2023/07/10 09:21:47;;;;;;;;;;;;;;;;;;4948627;28;20360;-88
2023/07/10 09:24:13;;;;;;;;;;;;;;;;;;4948561;28;19983;-89
2023/07/10 09:26:39;;;;;;;;;;;;;;;;;;4947865;28;19930;-90
2023/07/10 09:29:05;;;;;;;;;;;;;;;;;;4954620;28;19926;-87
2023/07/10 09:31:31;;;;;;;;;;;;;;;;;;4949528;28;20415;-90
2023/07/10 09:33:57;;;;;;;;;;;;;;;;;;4950126;28;19929;-88
2023/07/10 09:36:41;;;;;;;;;;;;;;;;;;4948270;28;19942;-90
2023/07/10 09:39:07;;;;;;;;;;;;;;;;;;4952115;28;19926;-91
2023/07/10 09:41:33;;;;;;;;;;;;;;;;;;4950515;28;19933;-90
2023/07/10 09:43:59;;;;;;;;;;;;;;;;;;4948414;28;19969;-89
2023/07/10 09:46:25;;;;;;;;;;;;;;;;;;4951598;28;20005;-92
2023/07/10 09:48:51;;;;;;;;;;;;;;;;;;4956422;28;20002;-91
2023/07/10 09:51:17;;;;;;;;;;;;;;;;;;4956683;28;19923;-91
2023/07/10 09:53:47;;;;;;;;;;;;;;;;;;4953989;28;19989;-91
2023/07/10 09:56:13;;;;;;;;;;;;;;;;;;4951212;28;19933;-90
2023/07/10 09:58:39;;;;;;;;;;;;;;;;;;4951735;28;19922;-87
2023/07/10 10:01:05;;;;;;;;;;;;;;;;;;4952086;28;19922;-87
2023/07/10 10:03:31;;;;;;;;;;;;;;;;;;4950636;28;19931;-91
2023/07/10 10:05:57;;;;;;;;;;;;;;;;;;4949792;28;20377;-90
2023/07/10 10:08:23;;;;;;;;;;;;;;;;;;4950436;28;20002;-91
2023/07/10 10:13:44;;;;;;;;;;;;;;;;;;4965609;28;19926;-90
2023/07/10 10:16:10;;;;;;;;;;;;;;;;;;4948739;28;19929;-91
2023/07/10 10:18:35;;;;;;;;;;;;;;;;;;4966987;28;19973;-89
2023/07/10 10:21:01;;;;;;;;;;;;;;;;;;4949204;28;20448;-88
2023/07/10 10:26:10;;;;;;;;;;;;;;;;;;4965163;28;19922;-87
2023/07/10 10:28:36;;;;;;;;;;;;;;;;;;4948870;28;19933;-90
2023/07/10 10:31:02;;;;;;;;;;;;;;;;;;4947858;28;20297;-89
2023/07/10 10:33:28;;;;;;;;;;;;;;;;;;4963450;28;19929;-88
2023/07/10 10:35:55;;;;;;;;;;;;;;;;;;4945266;28;19926;-89
2023/07/10 10:38:21;;;;;;;;;;;;;;;;;;4947489;28;19929;-90
2023/07/10 10:40:46;;;;;;;;;;;;;;;;;;4947674;28;19926;-90
2023/07/10 10:43:12;;;;;;;;;;;;;;;;;;4948157;28;19929;-90
2023/07/10 10:45:39;;;;;;;;;;;;;;;;;;4946915;28;19922;-90
2023/07/10 10:48:09;;;;;;;;;;;;;;;;;;4946903;28;20365;-89
2023/07/10 10:50:38;;;;;;;;;;;;;;;;;;4966658;28;19929;-88
2023/07/10 10:56:10;;;;;;;;;;;;;;;;;;4981152;28;20023;-91
2023/07/10 10:58:36;;;;;;;;;;;;;;;;;;4949687;28;20384;-89
2023/07/10 11:01:05;;;;;;;;;;;;;;;;;;4965685;28;19922;-91
2023/07/10 11:03:31;;;;;;;;;;;;;;;;;;4953120;28;19986;-89
2023/07/10 11:05:57;;;;;;;;;;;;;;;;;;4954916;28;19934;-89
2023/07/10 11:08:23;;;;;;;;;;;;;;;;;;4958754;28;19930;-88
2023/07/10 11:10:49;;;;;;;;;;;;;;;;;;4958431;28;19926;-88
2023/07/10 11:13:15;;;;;;;;;;;;;;;;;;4974949;28;19922;-86
2023/07/10 11:15:44;;;;;;;;;;;;;;;;;;4959483;28;20013;-88
2023/07/10 11:18:10;;;;;;;;;;;;;;;;;;4958057;28;19929;-87
2023/07/10 11:20:37;;;;;;;;;;;;;;;;;;4956660;28;19945;-89
2023/07/10 11:23:05;;;;;;;;;;;;;;;;;;4957140;28;19978;-88
2023/07/10 11:25:31;;;;;;;;;;;;;;;;;;4957535;28;19922;-90
2023/07/10 11:27:57;;;;;;;;;;;;;;;;;;4957566;28;19961;-88
2023/07/10 11:30:23;;;;;;;;;;;;;;;;;;4957018;28;19922;-88
2023/07/10 11:32:49;;;;;;;;;;;;;;;;;;4957584;28;19926;-86
2023/07/10 11:35:15;;;;;;;;;;;;;;;;;;4973189;28;19945;-85
2023/07/10 11:37:41;;;;;;;;;;;;;;;;;;4972360;28;19929;-89
2023/07/10 11:40:09;;;;;;;;;;;;;;;;;;4957388;28;19922;-89
2023/07/10 11:42:34;;;;;;;;;;;;;;;;;;4958260;28;19922;-88
2023/07/10 11:45:00;;;;;;;;;;;;;;;;;;4957061;28;19977;-88
2023/07/10 11:47:26;;;;;;;;;;;;;;;;;;4954851;28;19926;-86
2023/07/10 11:49:54;;;;;;;;;;;;;;;;;;4955272;28;19926;-92
2023/07/10 11:52:20;;;;;;;;;;;;;;;;;;4957171;28;19922;-85
2023/07/10 11:54:46;;;;;;;;;;;;;;;;;;4956739;28;19945;-84
2023/07/10 11:57:12;;;;;;;;;;;;;;;;;;4956893;28;19922;-85
2023/07/10 11:59:38;;;;;;;;;;;;;;;;;;4956818;28;19929;-85
2023/07/10 12:02:04;;;;;;;;;;;;;;;;;;4956083;28;19933;-84
2023/07/10 12:04:30;;;;;;;;;;;;;;;;;;4956452;28;19944;-85
2023/07/10 12:06:55;;;;;;;;;;;;;;;;;;4956107;28;19946;-84
2023/07/10 12:09:23;;;;;;;;;;;;;;;;;;4956545;28;19986;-84
2023/07/10 12:11:49;;;;;;;;;;;;;;;;;;4972712;28;19922;-85
2023/07/10 12:14:16;;;;;;;;;;;;;;;;;;4957331;28;19929;-85
2023/07/10 12:16:42;;;;;;;;;;;;;;;;;;4956419;28;19922;-85
2023/07/10 12:19:09;;;;;;;;;;;;;;;;;;4971272;28;19992;-85
2023/07/10 12:21:35;;;;;;;;;;;;;;;;;;4972103;28;19922;-84
2023/07/10 12:24:00;;;;;;;;;;;;;;;;;;4955860;28;20121;-85
2023/07/10 12:26:27;;;;;;;;;;;;;;;;;;4955239;28;19984;-85
2023/07/10 12:28:54;;;;;;;;;;;;;;;;;;4954622;28;19934;-87
2023/07/10 12:31:20;;;;;;;;;;;;;;;;;;4955527;28;19922;-86
2023/07/10 12:33:46;;;;;;;;;;;;;;;;;;4956080;28;19968;-84
2023/07/10 12:38:59;;;;;;;;;;;;;;;;;;4953042;29;19973;-84
2023/07/10 12:41:25;;;;;;;;;;;;;;;;;;4952591;29;19998;-83
2023/07/10 12:43:51;;;;;;;;;;;;;;;;;;4953189;29;19923;-86
2023/07/10 12:46:17;;;;;;;;;;;;;;;;;;4954878;28;19965;-85
2023/07/10 12:48:43;;;;;;;;;;;;;;;;;;4954337;28;19937;-85
2023/07/10 12:51:09;;;;;;;;;;;;;;;;;;4954756;28;19946;-85
2023/07/10 12:53:35;;;;;;;;;;;;;;;;;;4955601;28;20369;-85
2023/07/10 12:56:01;;;;;;;;;;;;;;;;;;4955483;28;19922;-88
2023/07/10 12:58:27;;;;;;;;;;;;;;;;;;4955046;28;19928;-84
2023/07/10 13:00:54;;;;;;;;;;;;;;;;;;4954860;28;19965;-85
2023/07/10 13:03:20;;;;;;;;;;;;;;;;;;4955683;28;19922;-85
2023/07/10 13:05:46;;;;;;;;;;;;;;;;;;4954835;28;19968;-85
2023/07/10 13:10:42;;;;;;;;;;;;;;;;;;4970250;28;19922;-85
2023/07/10 13:13:08;;;;;;;;;;;;;;;;;;4955460;28;19960;-85
2023/07/10 13:15:35;;;;;;;;;;;;;;;;;;4954247;28;19926;-87
2023/07/10 13:18:01;;;;;;;;;;;;;;;;;;4954989;28;20341;-86
2023/07/10 13:20:27;;;;;;;;;;;;;;;;;;4971122;28;19926;-85
2023/07/10 13:22:53;;;;;;;;;;;;;;;;;;4955693;28;19926;-86
2023/07/10 13:25:19;;;;;;;;;;;;;;;;;;4954038;28;19922;-84
2023/07/10 13:27:45;;;;;;;;;;;;;;;;;;4954598;28;19984;-86
2023/07/10 13:30:11;;;;;;;;;;;;;;;;;;4954541;28;19926;-85
2023/07/10 13:32:37;;;;;;;;;;;;;;;;;;4954248;28;19929;-86
2023/07/10 13:35:03;;;;;;;;;;;;;;;;;;4952667;28;19930;-86
2023/07/10 13:37:29;;;;;;;;;;;;;;;;;;4953927;28;19978;-82
2023/07/10 13:39:56;;;;;;;;;;;;;;;;;;4951887;28;19945;-85
2023/07/10 13:42:22;;;;;;;;;;;;;;;;;;4954490;28;19922;-85
2023/07/10 13:44:51;;;;;;;;;;;;;;;;;;4954532;28;19922;-84
2023/07/10 13:47:16;;;;;;;;;;;;;;;;;;4954622;28;20456;-86
2023/07/10 13:49:43;;;;;;;;;;;;;;;;;;4954113;28;19926;-86
2023/07/10 13:52:09;;;;;;;;;;;;;;;;;;4968128;28;20411;-86
2023/07/10 13:54:34;;;;;;;;;;;;;;;;;;4953318;28;19922;-86
2023/07/10 13:57:00;;;;;;;;;;;;;;;;;;4966082;28;19926;-84
2023/07/10 13:59:26;;;;;;;;;;;;;;;;;;4966844;28;19922;-86
2023/07/10 14:01:52;;;;;;;;;;;;;;;;;;4952313;28;19933;-84
2023/07/10 14:04:18;;;;;;;;;;;;;;;;;;4952337;28;20005;-84
2023/07/10 14:06:47;;;;;;;;;;;;;;;;;;4968150;28;20032;-84
2023/07/10 14:09:13;;;;;;;;;;;;;;;;;;4951040;28;20008;-83
2023/07/10 14:11:41;;;;;;;;;;;;;;;;;;4967177;28;19969;-83
2023/07/10 14:14:07;;;;;;;;;;;;;;;;;;4966833;28;19926;-83
2023/07/10 14:16:33;;;;;;;;;;;;;;;;;;4967181;28;19922;-83
2023/07/10 14:18:59;;;;;;;;;;;;;;;;;;4950315;28;19929;-82
2023/07/10 14:21:24;;;;;;;;;;;;;;;;;;4950107;28;20304;-83
2023/07/10 14:23:51;;;;;;;;;;;;;;;;;;4949791;28;19926;-84
2023/07/10 14:26:17;;;;;;;;;;;;;;;;;;4950184;28;19972;-84
2023/07/10 14:28:44;;;;;;;;;;;;;;;;;;4950342;28;19926;-83
2023/07/10 14:31:12;;;;;;;;;;;;;;;;;;4952036;28;19961;-84
2023/07/10 14:33:38;;;;;;;;;;;;;;;;;;4952670;28;19981;-86
2023/07/10 14:36:05;;;;;;;;;;;;;;;;;;4953266;28;19933;-86
2023/07/10 14:38:30;;;;;;;;;;;;;;;;;;4953976;28;20396;-86
2023/07/10 14:40:56;;;;;;;;;;;;;;;;;;4953711;28;19922;-86
2023/07/10 14:43:25;;;;;;;;;;;;;;;;;;4986840;28;19926;-86
2023/07/10 14:45:50;;;;;;;;;;;;;;;;;;4954007;28;19933;-84
2023/07/10 14:48:16;;;;;;;;;;;;;;;;;;4954427;28;19926;-84
2023/07/10 14:50:45;;;;;;;;;;;;;;;;;;4954124;28;19929;-86
2023/07/10 14:53:11;;;;;;;;;;;;;;;;;;4953774;28;19968;-85
2023/07/10 14:55:37;;;;;;;;;;;;;;;;;;4954377;28;19922;-86
2023/07/10 14:58:05;;;;;;;;;;;;;;;;;;4954363;28;19961;-86
2023/07/10 15:00:31;;;;;;;;;;;;;;;;;;4953651;28;19945;-85
2023/07/10 15:02:57;;;;;;;;;;;;;;;;;;4952918;28;19925;-85
2023/07/10 15:05:23;;;;;;;;;;;;;;;;;;4953199;28;19922;-85
2023/07/10 15:07:51;;;;;;;;;;;;;;;;;;4953891;28;19972;-85
2023/07/10 15:10:17;;;;;;;;;;;;;;;;;;4969700;28;19981;-86
2023/07/10 15:12:42;;;;;;;;;;;;;;;;;;4967470;28;19929;-86
2023/07/10 15:15:08;;;;;;;;;;;;;;;;;;4945367;28;19933;-87
2023/07/10 15:17:34;;;;;;;;;;;;;;;;;;4961756;28;19926;-86
2023/07/10 15:20:15;;;;;;;;;;;;;;;;;;4960756;28;19953;-86
2023/07/10 15:22:44;;;;;;;;;;;;;;;;;;4962317;28;19930;-86
2023/07/10 15:25:10;;;;;;;;;;;;;;;;;;4945774;28;20016;-86
2023/07/10 15:27:36;;;;;;;;;;;;;;;;;;4961135;28;19922;-85
2023/07/10 15:30:02;;;;;;;;;;;;;;;;;;4946402;28;19926;-87
2023/07/10 15:32:31;;;;;;;;;;;;;;;;;;4947744;28;19922;-86
2023/07/10 15:34:57;;;;;;;;;;;;;;;;;;4948433;28;19976;-84
2023/07/10 15:40:26;;;;;;;;;;;;;;;;;;4978020;28;20391;-84
2023/07/10 15:42:52;;;;;;;;;;;;;;;;;;4945124;28;19922;-85
2023/07/10 15:48:13;;;;;;;;;;;;;;;;;;4969146;28;19922;-87
2023/07/10 15:50:39;;;;;;;;;;;;;;;;;;4952896;28;19929;-86
2023/07/10 15:53:05;;;;;;;;;;;;;;;;;;4953105;28;19922;-86
2023/07/10 15:55:39;;;;;;;;;;;;;;;;;;4971650;28;19935;-85
2023/07/10 15:58:05;;;;;;;;;;;;;;;;;;4957529;28;19929;-86
2023/07/10 16:00:31;;;;;;;;;;;;;;;;;;4973144;28;20008;-86
2023/07/10 16:02:57;;;;;;;;;;;;;;;;;;4954887;28;20009;-85
2023/07/10 16:05:23;;;;;;;;;;;;;;;;;;4956058;28;19923;-85
2023/07/10 16:07:49;;;;;;;;;;;;;;;;;;4956670;28;19926;-84
2023/07/10 16:10:15;;;;;;;;;;;;;;;;;;4955882;28;19926;-84
2023/07/10 16:12:41;;;;;;;;;;;;;;;;;;4956132;28;19922;-84
2023/07/10 16:15:07;;;;;;;;;;;;;;;;;;4972012;28;20292;-86
2023/07/10 16:17:33;;;;;;;;;;;;;;;;;;4956019;28;19922;-85
2023/07/10 16:19:59;;;;;;;;;;;;;;;;;;4955236;28;19922;-84
2023/07/10 16:25:28;;;;;;;;;;;;;;;;;;4981470;28;20443;-84
2023/07/10 16:27:54;;;;;;;;;;;;;;;;;;4954770;28;19926;-83
2023/07/10 16:30:33;;;;;;;;;;;;;;;;;;4954026;28;19973;-83
2023/07/10 16:32:59;;;;;;;;;;;;;;;;;;4955103;28;19928;-83
2023/07/10 16:35:25;;;;;;;;;;;;;;;;;;4953893;28;19977;-84
2023/07/10 16:37:51;;;;;;;;;;;;;;;;;;4954198;28;19960;-83
2023/07/10 16:40:17;;;;;;;;;;;;;;;;;;4970145;28;19922;-84
2023/07/10 16:42:42;;;;;;;;;;;;;;;;;;4971212;28;19922;-85
2023/07/10 16:45:11;;;;;;;;;;;;;;;;;;4954702;28;19953;-85
2023/07/10 16:47:37;;;;;;;;;;;;;;;;;;4971400;28;19929;-85
2023/07/10 16:50:03;;;;;;;;;;;;;;;;;;4954581;28;19933;-84
2023/07/10 16:52:29;;;;;;;;;;;;;;;;;;4971036;28;19934;-83
2023/07/10 16:54:55;;;;;;;;;;;;;;;;;;4954653;28;20326;-84
2023/07/10 16:57:21;;;;;;;;;;;;;;;;;;4970281;28;19945;-84
2023/07/10 16:59:47;;;;;;;;;;;;;;;;;;4954137;28;20543;-83
2023/07/10 17:02:21;;;;;;;;;;;;;;;;;;4954580;28;19922;-84
2023/07/10 17:04:47;;;;;;;;;;;;;;;;;;4954246;28;19925;-84